FDX2454 KORD-KOAK
Flight info
| Callsign | FDX2454 |
|---|---|
| Flight time | N/A |
| Altitude | 34000 |
| Route | NOONY NIGHT NITWT OBH SNY J84 DTA TATOO RPARK OAKES3 |
| Aircraft | MD11/H-SDE1E2E3FGHIJ2J3J4J5M1RWXY/LB1D1 |
Departure
| Time | 2026-05-01 12:34 |
|---|---|
| Airport | Chicago O'Hare International Airport (KORD) |
Arrival
| Time | N/A |
|---|---|
| Airport | San Francisco Bay Oakland International Airport (KOAK) |
| Time | Latitude | Longitude | Altitude | Speed | Heading |
|---|---|---|---|---|---|
| 2026-05-01 12:02 | 41.96306 | -87.91341 | 678 ft | 0 kts | 0° |
| 2026-05-01 12:17 | 41.96295 | -87.91341 | 677 ft | 3 kts | 353° |
| 2026-05-01 12:17 | 41.96276 | -87.91339 | 676 ft | 3 kts | 354° |
| 2026-05-01 12:17 | 41.96256 | -87.91335 | 675 ft | 3 kts | 340° |
| 2026-05-01 12:18 | 41.96239 | -87.91325 | 676 ft | 3 kts | 326° |
| 2026-05-01 12:18 | 41.96230 | -87.91316 | 675 ft | 2 kts | 326° |
| 2026-05-01 12:18 | 41.96219 | -87.91306 | 674 ft | 3 kts | 2° |
| 2026-05-01 12:18 | 41.96214 | -87.91303 | 675 ft | 3 kts | 52° |
| 2026-05-01 12:19 | 41.96205 | -87.91321 | 675 ft | 4 kts | 63° |
| 2026-05-01 12:22 | 41.96206 | -87.91319 | 675 ft | 1 kts | 63° |
| 2026-05-01 12:22 | 41.96212 | -87.91297 | 675 ft | 6 kts | 72° |
| 2026-05-01 12:22 | 41.96219 | -87.91202 | 678 ft | 14 kts | 88° |
| 2026-05-01 12:22 | 41.96220 | -87.91081 | 678 ft | 12 kts | 89° |
| 2026-05-01 12:23 | 41.96221 | -87.90967 | 678 ft | 12 kts | 90° |
| 2026-05-01 12:23 | 41.96225 | -87.90835 | 678 ft | 10 kts | 75° |
| 2026-05-01 12:23 | 41.96260 | -87.90762 | 678 ft | 10 kts | 51° |
| 2026-05-01 12:23 | 41.96310 | -87.90676 | 678 ft | 13 kts | 52° |
| 2026-05-01 12:24 | 41.96352 | -87.90602 | 678 ft | 16 kts | 52° |
| 2026-05-01 12:24 | 41.96429 | -87.90504 | 678 ft | 14 kts | 20° |
| 2026-05-01 12:24 | 41.96515 | -87.90496 | 677 ft | 12 kts | 0° |
| 2026-05-01 12:24 | 41.96613 | -87.90497 | 676 ft | 16 kts | 360° |
| 2026-05-01 12:25 | 41.96728 | -87.90498 | 677 ft | 17 kts | 360° |
| 2026-05-01 12:25 | 41.96919 | -87.90642 | 676 ft | 19 kts | 312° |
| 2026-05-01 12:25 | 41.97002 | -87.90785 | 676 ft | 19 kts | 309° |
| 2026-05-01 12:26 | 41.97045 | -87.90922 | 677 ft | 16 kts | 266° |
| 2026-05-01 12:26 | 41.97042 | -87.91266 | 679 ft | 22 kts | 270° |
| 2026-05-01 12:26 | 41.97041 | -87.91501 | 679 ft | 28 kts | 269° |
| 2026-05-01 12:27 | 41.97040 | -87.91767 | 679 ft | 29 kts | 270° |
| 2026-05-01 12:27 | 41.97041 | -87.92309 | 678 ft | 28 kts | 270° |
| 2026-05-01 12:28 | 41.97050 | -87.92646 | 677 ft | 7 kts | 301° |
| 2026-05-01 12:28 | 41.97095 | -87.92665 | 678 ft | 8 kts | 0° |
| 2026-05-01 12:28 | 41.97316 | -87.92665 | 678 ft | 23 kts | 360° |
| 2026-05-01 12:29 | 41.97496 | -87.92666 | 678 ft | 29 kts | 360° |
| 2026-05-01 12:29 | 41.97698 | -87.92667 | 678 ft | 29 kts | 360° |
| 2026-05-01 12:29 | 41.98055 | -87.92665 | 678 ft | 18 kts | 1° |
| 2026-05-01 12:30 | 41.98099 | -87.92688 | 678 ft | 6 kts | 297° |
| 2026-05-01 12:30 | 41.98103 | -87.92793 | 678 ft | 17 kts | 269° |
| 2026-05-01 12:30 | 41.98103 | -87.92992 | 678 ft | 25 kts | 270° |
| 2026-05-01 12:31 | 41.98117 | -87.93131 | 676 ft | 5 kts | 308° |
| 2026-05-01 12:31 | 41.98143 | -87.93141 | 675 ft | 7 kts | 351° |
| 2026-05-01 12:31 | 41.98230 | -87.93142 | 678 ft | 17 kts | 360° |
| 2026-05-01 12:31 | 41.98381 | -87.93143 | 680 ft | 25 kts | 0° |
| 2026-05-01 12:32 | 41.98569 | -87.93142 | 678 ft | 29 kts | 0° |
| 2026-05-01 12:32 | 41.98815 | -87.93139 | 676 ft | 1 kts | 17° |
| 2026-05-01 12:32 | 41.98822 | -87.93126 | 675 ft | 5 kts | 51° |
| 2026-05-01 12:33 | 41.98830 | -87.93064 | 678 ft | 0 kts | 91° |
| 2026-05-01 12:33 | 41.98830 | -87.93048 | 678 ft | 17 kts | 91° |
| 2026-05-01 12:33 | 41.98831 | -87.92452 | 680 ft | 109 kts | 90° |
| 2026-05-01 12:34 | 41.98839 | -87.91073 | 686 ft | 179 kts | 89° |
| 2026-05-01 12:34 | 41.98825 | -87.89389 | 1535 ft | 178 kts | 88° |
| 2026-05-01 12:34 | 41.98818 | -87.87734 | 2590 ft | 177 kts | 86° |
| 2026-05-01 12:34 | 41.98794 | -87.86035 | 3287 ft | 183 kts | 88° |
| 2026-05-01 12:35 | 41.98752 | -87.84306 | 3919 ft | 192 kts | 88° |
| 2026-05-01 12:35 | 41.98828 | -87.82407 | 4119 ft | 211 kts | 69° |
| 2026-05-01 12:35 | 41.99613 | -87.80791 | 4555 ft | 213 kts | 36° |
| 2026-05-01 12:35 | 42.00999 | -87.79946 | 4743 ft | 234 kts | 8° |
| 2026-05-01 12:36 | 42.02685 | -87.79656 | 4929 ft | 252 kts | 358° |
| 2026-05-01 12:36 | 42.04369 | -87.80220 | 5509 ft | 253 kts | 330° |
| 2026-05-01 12:36 | 42.05651 | -87.81821 | 6119 ft | 256 kts | 303° |
| 2026-05-01 12:36 | 42.06217 | -87.84096 | 6677 ft | 262 kts | 276° |
| 2026-05-01 12:37 | 42.06091 | -87.86564 | 7150 ft | 267 kts | 269° |
| 2026-05-01 12:37 | 42.06031 | -87.89057 | 7685 ft | 267 kts | 272° |
| 2026-05-01 12:37 | 42.06032 | -87.91569 | 8349 ft | 269 kts | 273° |
| 2026-05-01 12:37 | 42.06034 | -87.94050 | 9239 ft | 270 kts | 272° |
| 2026-05-01 12:38 | 42.06027 | -87.96594 | 10100 ft | 274 kts | 272° |
| 2026-05-01 12:38 | 42.06014 | -87.99277 | 10335 ft | 301 kts | 272° |
| 2026-05-01 12:38 | 42.05994 | -88.02224 | 10476 ft | 329 kts | 271° |
| 2026-05-01 12:38 | 42.05963 | -88.05330 | 11096 ft | 338 kts | 271° |
| 2026-05-01 12:39 | 42.05923 | -88.08538 | 11952 ft | 341 kts | 271° |
| 2026-05-01 12:39 | 42.05879 | -88.11745 | 12793 ft | 344 kts | 271° |
| 2026-05-01 12:39 | 42.05834 | -88.14976 | 13598 ft | 347 kts | 271° |
| 2026-05-01 12:39 | 42.05788 | -88.18194 | 14317 ft | 350 kts | 271° |
| 2026-05-01 12:40 | 42.05740 | -88.21482 | 15029 ft | 352 kts | 271° |
| 2026-05-01 12:40 | 42.05690 | -88.24785 | 15724 ft | 355 kts | 271° |
| 2026-05-01 12:40 | 42.05640 | -88.28115 | 16392 ft | 357 kts | 271° |
| 2026-05-01 12:40 | 42.05588 | -88.31460 | 17073 ft | 359 kts | 271° |
| 2026-05-01 12:41 | 42.05535 | -88.34834 | 17732 ft | 361 kts | 271° |
| 2026-05-01 12:41 | 42.05481 | -88.38223 | 18377 ft | 364 kts | 271° |
| 2026-05-01 12:41 | 42.05425 | -88.41640 | 18900 ft | 367 kts | 271° |
| 2026-05-01 12:41 | 42.05368 | -88.45077 | 19403 ft | 370 kts | 271° |
| 2026-05-01 12:42 | 42.05310 | -88.48509 | 19877 ft | 372 kts | 271° |
| 2026-05-01 12:42 | 42.05250 | -88.52002 | 20388 ft | 375 kts | 271° |
| 2026-05-01 12:42 | 42.05188 | -88.55525 | 20870 ft | 378 kts | 271° |
| 2026-05-01 12:42 | 42.05125 | -88.59079 | 21348 ft | 381 kts | 271° |
| 2026-05-01 12:43 | 42.05060 | -88.62661 | 21832 ft | 385 kts | 271° |
| 2026-05-01 12:43 | 42.04994 | -88.66276 | 22319 ft | 388 kts | 271° |
| 2026-05-01 12:43 | 42.04925 | -88.69920 | 22813 ft | 392 kts | 271° |
| 2026-05-01 12:43 | 42.04855 | -88.73598 | 23308 ft | 395 kts | 271° |
| 2026-05-01 12:44 | 42.04777 | -88.77285 | 23779 ft | 399 kts | 270° |
| 2026-05-01 12:44 | 42.04621 | -88.80969 | 24236 ft | 401 kts | 268° |
| 2026-05-01 12:44 | 42.04180 | -88.88495 | 25212 ft | 405 kts | 268° |
| 2026-05-01 12:45 | 42.03719 | -88.96089 | 26191 ft | 409 kts | 268° |
| 2026-05-01 12:45 | 42.03492 | -88.99914 | 26671 ft | 411 kts | 267° |
| 2026-05-01 12:45 | 42.03266 | -89.03756 | 27149 ft | 414 kts | 267° |
| 2026-05-01 12:46 | 42.03038 | -89.07626 | 27624 ft | 416 kts | 267° |
| 2026-05-01 12:46 | 42.02813 | -89.11442 | 28076 ft | 418 kts | 267° |
| 2026-05-01 12:46 | 42.02582 | -89.15350 | 28535 ft | 420 kts | 267° |
| 2026-05-01 12:46 | 42.02348 | -89.19278 | 28988 ft | 423 kts | 267° |
| 2026-05-01 12:47 | 42.02113 | -89.23213 | 29425 ft | 425 kts | 267° |
| 2026-05-01 12:47 | 42.01874 | -89.27183 | 29841 ft | 427 kts | 267° |
| 2026-05-01 12:47 | 42.01632 | -89.31164 | 30367 ft | 426 kts | 267° |
| 2026-05-01 12:47 | 42.01391 | -89.35126 | 30816 ft | 425 kts | 267° |
| 2026-05-01 12:48 | 42.01148 | -89.39078 | 31263 ft | 424 kts | 267° |
| 2026-05-01 12:48 | 42.00904 | -89.43027 | 31694 ft | 423 kts | 267° |
| 2026-05-01 12:48 | 42.00664 | -89.46908 | 32113 ft | 422 kts | 266° |
| 2026-05-01 12:48 | 42.00419 | -89.50837 | 32520 ft | 421 kts | 266° |
| 2026-05-01 12:49 | 42.00174 | -89.54751 | 32908 ft | 421 kts | 266° |
| 2026-05-01 12:49 | 41.99927 | -89.58670 | 33302 ft | 420 kts | 266° |
| 2026-05-01 12:49 | 41.99680 | -89.62571 | 33701 ft | 418 kts | 266° |
| 2026-05-01 12:49 | 41.99432 | -89.66469 | 33970 ft | 420 kts | 266° |
| 2026-05-01 12:50 | 41.98929 | -89.74304 | 34038 ft | 421 kts | 266° |
| 2026-05-01 12:50 | 41.98424 | -89.82087 | 34028 ft | 419 kts | 266° |
| 2026-05-01 12:51 | 41.97908 | -89.89878 | 34035 ft | 418 kts | 266° |
| 2026-05-01 12:52 | 41.97086 | -90.01542 | 34044 ft | 418 kts | 266° |
| 2026-05-01 12:52 | 41.96292 | -90.13147 | 34045 ft | 418 kts | 266° |
| 2026-05-01 12:53 | 41.95493 | -90.24798 | 34048 ft | 418 kts | 266° |
| 2026-05-01 12:54 | 41.94955 | -90.32567 | 34035 ft | 418 kts | 266° |
| 2026-05-01 12:54 | 41.94137 | -90.44215 | 34045 ft | 417 kts | 265° |
| 2026-05-01 12:55 | 41.93311 | -90.55794 | 34041 ft | 417 kts | 265° |
| 2026-05-01 12:56 | 41.92753 | -90.63543 | 34034 ft | 417 kts | 265° |
| 2026-05-01 12:56 | 41.92188 | -90.71298 | 34033 ft | 417 kts | 265° |
| 2026-05-01 12:57 | 41.91622 | -90.79000 | 34024 ft | 418 kts | 265° |
| 2026-05-01 12:57 | 41.90757 | -90.90640 | 34028 ft | 418 kts | 265° |
| 2026-05-01 12:58 | 41.90172 | -90.98405 | 34049 ft | 418 kts | 265° |
| 2026-05-01 12:59 | 41.89244 | -91.10039 | 34044 ft | 418 kts | 265° |
| 2026-05-01 12:59 | 41.88331 | -91.21645 | 34056 ft | 420 kts | 265° |
| 2026-05-01 13:00 | 41.87414 | -91.33356 | 34045 ft | 421 kts | 265° |
| 2026-05-01 13:01 | 41.86493 | -91.45001 | 34052 ft | 421 kts | 265° |
| 2026-05-01 13:02 | 41.85555 | -91.56695 | 34041 ft | 420 kts | 265° |
| 2026-05-01 13:07 | 41.80030 | -92.42490 | 34045 ft | 421 kts | 266° |
| 2026-05-01 13:08 | 41.79549 | -92.50320 | 34050 ft | 421 kts | 266° |
| 2026-05-01 13:08 | 41.79067 | -92.58086 | 34054 ft | 422 kts | 266° |
| 2026-05-01 13:09 | 41.78574 | -92.65918 | 34056 ft | 422 kts | 266° |
| 2026-05-01 13:09 | 41.78078 | -92.73739 | 34058 ft | 421 kts | 266° |
| 2026-05-01 13:10 | 41.77575 | -92.81559 | 34035 ft | 421 kts | 266° |
| 2026-05-01 13:10 | 41.77063 | -92.89324 | 34039 ft | 421 kts | 265° |
| 2026-05-01 13:11 | 41.76516 | -92.97140 | 34041 ft | 421 kts | 265° |
| 2026-05-01 13:11 | 41.75982 | -93.04953 | 34040 ft | 421 kts | 265° |
| 2026-05-01 13:12 | 41.75454 | -93.12784 | 34039 ft | 422 kts | 265° |
| 2026-05-01 13:12 | 41.74924 | -93.20616 | 34041 ft | 422 kts | 265° |
| 2026-05-01 13:13 | 41.74392 | -93.28400 | 34036 ft | 422 kts | 265° |
| 2026-05-01 13:13 | 41.73852 | -93.36230 | 34045 ft | 422 kts | 265° |
| 2026-05-01 13:14 | 41.73341 | -93.44064 | 34051 ft | 422 kts | 266° |
| 2026-05-01 13:14 | 41.72920 | -93.51910 | 34049 ft | 422 kts | 266° |
| 2026-05-01 13:15 | 41.72522 | -93.59698 | 34048 ft | 422 kts | 266° |
| 2026-05-01 13:15 | 41.72115 | -93.67539 | 34049 ft | 422 kts | 266° |
| 2026-05-01 13:16 | 41.71702 | -93.75364 | 34035 ft | 422 kts | 266° |
| 2026-05-01 13:16 | 41.71282 | -93.83204 | 34037 ft | 422 kts | 266° |
| 2026-05-01 13:17 | 41.70431 | -93.98757 | 34029 ft | 418 kts | 266° |
| 2026-05-01 13:18 | 41.69781 | -94.10401 | 34025 ft | 418 kts | 266° |
| 2026-05-01 13:18 | 41.69344 | -94.18106 | 34025 ft | 418 kts | 266° |
| 2026-05-01 13:19 | 41.68898 | -94.25865 | 34027 ft | 418 kts | 266° |
| 2026-05-01 13:20 | 41.68220 | -94.37507 | 34034 ft | 418 kts | 266° |
| 2026-05-01 13:20 | 41.67762 | -94.45263 | 34042 ft | 418 kts | 266° |
| 2026-05-01 13:21 | 41.67042 | -94.56849 | 34049 ft | 419 kts | 265° |
| 2026-05-01 13:21 | 41.66542 | -94.64626 | 34055 ft | 421 kts | 265° |
| 2026-05-01 13:22 | 41.66054 | -94.72423 | 34042 ft | 421 kts | 265° |
| 2026-05-01 13:22 | 41.65568 | -94.80219 | 34041 ft | 421 kts | 265° |
| 2026-05-01 13:23 | 41.65081 | -94.87965 | 34039 ft | 421 kts | 265° |
| 2026-05-01 13:23 | 41.64585 | -94.95771 | 34032 ft | 421 kts | 265° |
| 2026-05-01 13:24 | 41.64083 | -95.03578 | 34041 ft | 422 kts | 265° |
| 2026-05-01 13:25 | 41.63321 | -95.15290 | 34051 ft | 422 kts | 265° |
| 2026-05-01 13:25 | 41.62809 | -95.23045 | 34049 ft | 422 kts | 265° |
| 2026-05-01 13:26 | 41.62289 | -95.30853 | 34049 ft | 422 kts | 265° |
| 2026-05-01 13:26 | 41.61762 | -95.38676 | 34049 ft | 424 kts | 265° |
| 2026-05-01 13:27 | 41.61232 | -95.46469 | 34050 ft | 424 kts | 265° |
| 2026-05-01 13:27 | 41.60421 | -95.58237 | 34056 ft | 424 kts | 265° |
| 2026-05-01 13:28 | 41.59563 | -95.69996 | 34067 ft | 424 kts | 265° |
| 2026-05-01 13:29 | 41.58420 | -95.85694 | 34069 ft | 427 kts | 265° |
| 2026-05-01 13:31 | 41.56696 | -96.09340 | 34052 ft | 427 kts | 265° |
| 2026-05-01 13:32 | 41.55225 | -96.29002 | 34073 ft | 427 kts | 265° |
| 2026-05-01 13:33 | 41.53719 | -96.48661 | 34077 ft | 428 kts | 265° |
| 2026-05-01 13:34 | 41.52482 | -96.64503 | 34081 ft | 429 kts | 265° |
| 2026-05-01 13:35 | 41.51525 | -96.76337 | 34087 ft | 430 kts | 265° |
| 2026-05-01 13:36 | 41.50531 | -96.88211 | 34095 ft | 429 kts | 265° |
| 2026-05-01 13:36 | 41.49558 | -97.00084 | 34103 ft | 429 kts | 265° |
| 2026-05-01 13:37 | 41.48907 | -97.07992 | 34102 ft | 429 kts | 265° |
| 2026-05-01 13:37 | 41.48254 | -97.15851 | 34113 ft | 429 kts | 265° |
| 2026-05-01 13:38 | 41.47258 | -97.27717 | 34118 ft | 429 kts | 265° |
| 2026-05-01 13:39 | 41.46587 | -97.35624 | 34111 ft | 429 kts | 265° |
| 2026-05-01 13:39 | 41.45916 | -97.43480 | 34115 ft | 429 kts | 265° |
| 2026-05-01 13:40 | 41.45234 | -97.51388 | 34114 ft | 429 kts | 265° |
| 2026-05-01 13:40 | 41.44546 | -97.59297 | 34109 ft | 430 kts | 265° |
| 2026-05-01 13:41 | 41.43851 | -97.67231 | 34110 ft | 432 kts | 265° |
| 2026-05-01 13:41 | 41.43153 | -97.75129 | 34114 ft | 432 kts | 265° |
| 2026-05-01 13:42 | 41.42442 | -97.83078 | 34110 ft | 432 kts | 265° |
| 2026-05-01 13:42 | 41.41694 | -97.91028 | 34120 ft | 433 kts | 265° |
| 2026-05-01 13:43 | 41.40954 | -97.98979 | 34112 ft | 432 kts | 266° |
| 2026-05-01 13:43 | 41.40230 | -98.06866 | 34121 ft | 432 kts | 266° |
| 2026-05-01 13:44 | 41.39501 | -98.14803 | 34118 ft | 432 kts | 266° |
| 2026-05-01 13:44 | 41.38766 | -98.22743 | 34127 ft | 432 kts | 266° |
| 2026-05-01 13:45 | 41.38026 | -98.30676 | 34128 ft | 432 kts | 266° |
| 2026-05-01 13:45 | 41.37420 | -98.38561 | 34125 ft | 429 kts | 269° |
| 2026-05-01 13:46 | 41.37081 | -98.46458 | 34129 ft | 428 kts | 270° |
| 2026-05-01 13:46 | 41.36783 | -98.54364 | 34130 ft | 428 kts | 270° |
| 2026-05-01 13:47 | 41.36468 | -98.62272 | 34131 ft | 428 kts | 270° |
| 2026-05-01 13:47 | 41.36142 | -98.70126 | 34133 ft | 428 kts | 270° |
| 2026-05-01 13:48 | 41.35805 | -98.78013 | 34128 ft | 425 kts | 270° |
| 2026-05-01 13:48 | 41.35465 | -98.85868 | 34127 ft | 425 kts | 270° |
| 2026-05-01 13:49 | 41.35121 | -98.93714 | 34140 ft | 425 kts | 270° |
| 2026-05-01 13:49 | 41.34773 | -99.01517 | 34132 ft | 425 kts | 270° |
| 2026-05-01 13:50 | 41.34417 | -99.09367 | 34107 ft | 425 kts | 270° |
| 2026-05-01 13:50 | 41.34056 | -99.17187 | 34134 ft | 423 kts | 270° |
| 2026-05-01 13:51 | 41.33692 | -99.24994 | 34118 ft | 423 kts | 270° |
| 2026-05-01 13:51 | 41.33323 | -99.32794 | 34123 ft | 422 kts | 270° |
| 2026-05-01 13:52 | 41.32951 | -99.40545 | 34110 ft | 423 kts | 270° |
| 2026-05-01 13:52 | 41.32555 | -99.48338 | 34092 ft | 421 kts | 270° |
| 2026-05-01 13:53 | 41.32141 | -99.56068 | 34107 ft | 419 kts | 270° |
| 2026-05-01 13:53 | 41.31544 | -99.67666 | 34106 ft | 419 kts | 270° |
| 2026-05-01 13:54 | 41.31152 | -99.75340 | 34103 ft | 419 kts | 270° |
| 2026-05-01 13:54 | 41.30752 | -99.83071 | 34104 ft | 419 kts | 270° |
| 2026-05-01 13:55 | 41.30347 | -99.90790 | 34102 ft | 418 kts | 270° |
| 2026-05-01 13:55 | 41.29937 | -99.98498 | 34086 ft | 418 kts | 270° |
| 2026-05-01 13:56 | 41.29525 | -100.06162 | 34089 ft | 418 kts | 270° |
| 2026-05-01 13:56 | 41.29105 | -100.13867 | 34082 ft | 418 kts | 270° |
| 2026-05-01 13:57 | 41.28752 | -100.20278 | 34085 ft | 418 kts | 270° |
| 2026-05-01 13:57 | 41.28248 | -100.29313 | 34075 ft | 420 kts | 269° |
| 2026-05-01 13:58 | 41.27810 | -100.37055 | 34082 ft | 420 kts | 269° |
| 2026-05-01 13:58 | 41.27370 | -100.44747 | 34082 ft | 420 kts | 269° |
| 2026-05-01 13:59 | 41.26922 | -100.52490 | 34086 ft | 420 kts | 269° |
| 2026-05-01 13:59 | 41.26445 | -100.60232 | 34070 ft | 422 kts | 269° |
| 2026-05-01 14:00 | 41.25956 | -100.68027 | 34091 ft | 423 kts | 269° |
| 2026-05-01 14:00 | 41.25483 | -100.75771 | 34090 ft | 423 kts | 269° |
| 2026-05-01 14:01 | 41.25009 | -100.83557 | 34086 ft | 424 kts | 269° |
| 2026-05-01 14:01 | 41.24531 | -100.91362 | 34085 ft | 424 kts | 269° |
| 2026-05-01 14:02 | 41.24048 | -100.99169 | 34078 ft | 424 kts | 269° |
| 2026-05-01 14:02 | 41.23559 | -101.06972 | 34069 ft | 424 kts | 269° |
| 2026-05-01 14:03 | 41.23068 | -101.14720 | 34062 ft | 424 kts | 269° |
| 2026-05-01 14:03 | 41.22678 | -101.20805 | 34063 ft | 424 kts | 269° |
| 2026-05-01 14:04 | 41.22238 | -101.27632 | 34062 ft | 424 kts | 268° |
| 2026-05-01 14:04 | 41.21816 | -101.34118 | 34054 ft | 427 kts | 268° |
| 2026-05-01 14:05 | 41.21214 | -101.43264 | 34069 ft | 428 kts | 268° |
| 2026-05-01 14:05 | 41.20690 | -101.51138 | 34080 ft | 428 kts | 268° |
| 2026-05-01 14:06 | 41.20160 | -101.59013 | 34093 ft | 428 kts | 268° |
| 2026-05-01 14:06 | 41.19617 | -101.66882 | 34101 ft | 428 kts | 268° |
| 2026-05-01 14:07 | 41.19042 | -101.74781 | 34103 ft | 432 kts | 268° |
| 2026-05-01 14:08 | 41.18199 | -101.86633 | 34101 ft | 432 kts | 268° |
| 2026-05-01 14:08 | 41.17638 | -101.94579 | 34093 ft | 432 kts | 268° |
| 2026-05-01 14:09 | 41.17074 | -102.02523 | 34084 ft | 432 kts | 268° |
| 2026-05-01 14:09 | 41.16502 | -102.10499 | 34072 ft | 436 kts | 268° |
| 2026-05-01 14:10 | 41.15925 | -102.18461 | 34064 ft | 437 kts | 268° |
| 2026-05-01 14:10 | 41.15337 | -102.26483 | 34052 ft | 437 kts | 268° |
| 2026-05-01 14:11 | 41.14744 | -102.34505 | 34038 ft | 437 kts | 268° |
| 2026-05-01 14:11 | 41.13846 | -102.46515 | 34043 ft | 441 kts | 267° |
| 2026-05-01 14:12 | 41.13233 | -102.54616 | 34039 ft | 442 kts | 267° |
| 2026-05-01 14:12 | 41.12613 | -102.62730 | 34043 ft | 442 kts | 267° |
| 2026-05-01 14:13 | 41.12093 | -102.69470 | 34053 ft | 442 kts | 267° |
| 2026-05-01 14:13 | 41.11338 | -102.78950 | 34049 ft | 443 kts | 267° |
| 2026-05-01 14:14 | 41.10670 | -102.87064 | 34096 ft | 446 kts | 267° |
| 2026-05-01 14:14 | 41.09941 | -102.95240 | 34093 ft | 448 kts | 263° |
| 2026-05-01 14:15 | 41.08615 | -103.03336 | 34098 ft | 451 kts | 259° |
| 2026-05-01 14:15 | 41.07078 | -103.11396 | 34090 ft | 451 kts | 259° |
| 2026-05-01 14:16 | 41.05566 | -103.19400 | 34046 ft | 453 kts | 259° |
| 2026-05-01 14:16 | 41.04055 | -103.27519 | 34045 ft | 454 kts | 259° |
| 2026-05-01 14:17 | 41.02547 | -103.35639 | 34054 ft | 454 kts | 259° |
| 2026-05-01 14:17 | 41.01035 | -103.43753 | 34068 ft | 454 kts | 259° |
| 2026-05-01 14:18 | 40.99525 | -103.51820 | 34060 ft | 456 kts | 259° |
| 2026-05-01 14:18 | 40.98238 | -103.58667 | 34081 ft | 458 kts | 259° |
| 2026-05-01 14:19 | 40.96441 | -103.68182 | 34085 ft | 459 kts | 259° |
| 2026-05-01 14:19 | 40.94888 | -103.76371 | 34076 ft | 459 kts | 259° |
| 2026-05-01 14:20 | 40.92566 | -103.88547 | 34126 ft | 457 kts | 258° |
| 2026-05-01 14:21 | 40.91001 | -103.96715 | 34193 ft | 459 kts | 258° |
| 2026-05-01 14:21 | 40.89413 | -104.04885 | 34197 ft | 459 kts | 258° |
| 2026-05-01 14:22 | 40.87005 | -104.17118 | 34190 ft | 459 kts | 258° |
| 2026-05-01 14:22 | 40.85423 | -104.25231 | 34165 ft | 461 kts | 258° |
| 2026-05-01 14:23 | 40.83820 | -104.33446 | 34167 ft | 462 kts | 258° |
| 2026-05-01 14:23 | 40.82208 | -104.41666 | 34146 ft | 463 kts | 258° |
| 2026-05-01 14:24 | 40.80590 | -104.49886 | 34149 ft | 463 kts | 258° |
| 2026-05-01 14:24 | 40.78967 | -104.58096 | 34130 ft | 463 kts | 258° |
| 2026-05-01 14:25 | 40.77348 | -104.66252 | 34120 ft | 463 kts | 258° |
| 2026-05-01 14:25 | 40.75712 | -104.74459 | 34122 ft | 463 kts | 258° |
| 2026-05-01 14:26 | 40.73248 | -104.86757 | 34120 ft | 463 kts | 258° |
| 2026-05-01 14:27 | 40.71597 | -104.94960 | 34095 ft | 463 kts | 257° |
| 2026-05-01 14:27 | 40.69947 | -105.03125 | 34128 ft | 464 kts | 257° |
| 2026-05-01 14:28 | 40.67408 | -105.15451 | 34120 ft | 465 kts | 257° |
| 2026-05-01 14:28 | 40.65711 | -105.23657 | 34118 ft | 465 kts | 257° |
| 2026-05-01 14:29 | 40.64033 | -105.31817 | 34111 ft | 465 kts | 257° |
| 2026-05-01 14:30 | 40.60648 | -105.48238 | 34113 ft | 465 kts | 256° |
| 2026-05-01 14:31 | 40.58108 | -105.60475 | 34125 ft | 465 kts | 256° |
| 2026-05-01 14:31 | 40.56398 | -105.68674 | 34139 ft | 465 kts | 256° |
| 2026-05-01 14:32 | 40.54680 | -105.76874 | 34140 ft | 465 kts | 256° |
| 2026-05-01 14:32 | 40.52957 | -105.85064 | 34152 ft | 465 kts | 256° |
| 2026-05-01 14:33 | 40.51213 | -105.93251 | 34168 ft | 465 kts | 256° |
| 2026-05-01 14:33 | 40.49467 | -106.01378 | 34165 ft | 465 kts | 256° |
| 2026-05-01 14:34 | 40.47715 | -106.09572 | 34183 ft | 466 kts | 256° |
| 2026-05-01 14:34 | 40.45963 | -106.17765 | 34184 ft | 466 kts | 256° |
| 2026-05-01 14:35 | 40.44206 | -106.25960 | 34185 ft | 466 kts | 256° |
| 2026-05-01 14:35 | 40.42455 | -106.34090 | 34184 ft | 466 kts | 256° |
| 2026-05-01 14:36 | 40.40687 | -106.42269 | 34186 ft | 466 kts | 255° |
| 2026-05-01 14:36 | 40.38915 | -106.50439 | 34178 ft | 465 kts | 255° |
| 2026-05-01 14:37 | 40.37137 | -106.58601 | 34179 ft | 466 kts | 255° |
| 2026-05-01 14:37 | 40.35352 | -106.66763 | 34174 ft | 466 kts | 255° |
| 2026-05-01 14:38 | 40.33576 | -106.74860 | 34173 ft | 465 kts | 255° |
| 2026-05-01 14:38 | 40.31789 | -106.82966 | 34170 ft | 458 kts | 255° |
| 2026-05-01 14:39 | 40.30026 | -106.90938 | 34169 ft | 454 kts | 255° |
| 2026-05-01 14:39 | 40.28243 | -106.98869 | 34175 ft | 454 kts | 255° |
| 2026-05-01 14:40 | 40.26450 | -107.06801 | 34174 ft | 454 kts | 255° |
| 2026-05-01 14:40 | 40.24682 | -107.14674 | 34174 ft | 454 kts | 255° |
| 2026-05-01 14:41 | 40.22903 | -107.22607 | 34169 ft | 454 kts | 255° |
| 2026-05-01 14:41 | 40.21120 | -107.30532 | 34170 ft | 454 kts | 255° |
| 2026-05-01 14:42 | 40.19329 | -107.38459 | 34153 ft | 454 kts | 255° |
| 2026-05-01 14:42 | 40.17547 | -107.46319 | 34152 ft | 453 kts | 255° |
| 2026-05-01 14:43 | 40.15752 | -107.54209 | 34142 ft | 453 kts | 255° |
| 2026-05-01 14:43 | 40.13951 | -107.62102 | 34133 ft | 453 kts | 255° |
| 2026-05-01 14:44 | 40.12144 | -107.69986 | 34134 ft | 453 kts | 255° |
| 2026-05-01 14:44 | 40.09437 | -107.81751 | 34133 ft | 453 kts | 255° |
| 2026-05-01 14:45 | 40.06705 | -107.93563 | 34160 ft | 453 kts | 255° |
| 2026-05-01 14:46 | 40.05089 | -108.01484 | 34163 ft | 452 kts | 259° |
| 2026-05-01 14:46 | 40.03318 | -108.13509 | 34147 ft | 452 kts | 261° |
| 2026-05-01 14:47 | 40.02167 | -108.21565 | 34141 ft | 452 kts | 261° |
| 2026-05-01 14:48 | 40.00394 | -108.33644 | 34131 ft | 452 kts | 261° |
| 2026-05-01 14:48 | 39.98604 | -108.45664 | 34125 ft | 452 kts | 261° |
| 2026-05-01 14:49 | 39.96188 | -108.61761 | 34120 ft | 452 kts | 261° |
| 2026-05-01 14:50 | 39.93756 | -108.77802 | 34113 ft | 453 kts | 260° |
| 2026-05-01 14:51 | 39.91921 | -108.89810 | 34110 ft | 453 kts | 260° |
| 2026-05-01 14:52 | 39.90064 | -109.01866 | 34102 ft | 453 kts | 260° |
| 2026-05-01 14:53 | 39.88163 | -109.13845 | 34097 ft | 452 kts | 260° |
| 2026-05-01 14:53 | 39.86897 | -109.21864 | 34093 ft | 452 kts | 260° |
| 2026-05-01 14:54 | 39.85639 | -109.29874 | 34099 ft | 452 kts | 260° |
| 2026-05-01 14:54 | 39.84377 | -109.37886 | 34102 ft | 452 kts | 260° |
| 2026-05-01 14:55 | 39.83110 | -109.45894 | 34101 ft | 452 kts | 260° |
| 2026-05-01 14:55 | 39.81846 | -109.53836 | 34105 ft | 451 kts | 260° |
| 2026-05-01 14:56 | 39.80570 | -109.61823 | 34105 ft | 451 kts | 260° |
| 2026-05-01 14:56 | 39.79288 | -109.69813 | 34108 ft | 451 kts | 260° |
| 2026-05-01 14:57 | 39.78000 | -109.77798 | 34100 ft | 451 kts | 260° |
| 2026-05-01 14:57 | 39.76067 | -109.89713 | 34113 ft | 451 kts | 260° |
| 2026-05-01 14:58 | 39.74766 | -109.97680 | 34110 ft | 451 kts | 260° |
| 2026-05-01 14:58 | 39.73460 | -110.05651 | 34113 ft | 451 kts | 260° |
| 2026-05-01 14:59 | 39.72139 | -110.13566 | 34104 ft | 451 kts | 259° |
| 2026-05-01 14:59 | 39.70793 | -110.21525 | 34110 ft | 451 kts | 259° |
| 2026-05-01 15:00 | 39.68796 | -110.33462 | 34109 ft | 451 kts | 260° |
| 2026-05-01 15:01 | 39.67688 | -110.40085 | 34117 ft | 451 kts | 259° |
| 2026-05-01 15:01 | 39.66139 | -110.49312 | 34102 ft | 451 kts | 260° |
| 2026-05-01 15:02 | 39.64799 | -110.57250 | 34114 ft | 450 kts | 260° |
| 2026-05-01 15:02 | 39.63682 | -110.63844 | 34147 ft | 450 kts | 259° |
| 2026-05-01 15:03 | 39.62332 | -110.71779 | 34146 ft | 450 kts | 259° |
| 2026-05-01 15:03 | 39.60757 | -110.80992 | 34144 ft | 450 kts | 260° |
| 2026-05-01 15:04 | 39.59619 | -110.87615 | 34150 ft | 449 kts | 260° |
| 2026-05-01 15:04 | 39.58269 | -110.95451 | 34140 ft | 448 kts | 259° |
| 2026-05-01 15:05 | 39.56903 | -111.03339 | 34131 ft | 448 kts | 259° |
| 2026-05-01 15:05 | 39.55533 | -111.11220 | 34120 ft | 448 kts | 259° |
| 2026-05-01 15:06 | 39.54139 | -111.19091 | 34106 ft | 447 kts | 259° |
| 2026-05-01 15:06 | 39.52745 | -111.26881 | 34103 ft | 447 kts | 259° |
| 2026-05-01 15:07 | 39.51353 | -111.34723 | 34099 ft | 447 kts | 259° |
| 2026-05-01 15:07 | 39.49965 | -111.42565 | 34085 ft | 447 kts | 259° |
| 2026-05-01 15:08 | 39.48574 | -111.50403 | 34083 ft | 447 kts | 259° |
| 2026-05-01 15:08 | 39.47177 | -111.58239 | 34073 ft | 447 kts | 259° |
| 2026-05-01 15:09 | 39.45784 | -111.66014 | 34066 ft | 447 kts | 259° |
| 2026-05-01 15:09 | 39.44376 | -111.73846 | 34069 ft | 447 kts | 259° |
| 2026-05-01 15:10 | 39.42964 | -111.81663 | 34055 ft | 445 kts | 260° |
| 2026-05-01 15:10 | 39.40848 | -111.93314 | 34054 ft | 443 kts | 259° |
| 2026-05-01 15:11 | 39.38735 | -112.04890 | 34055 ft | 443 kts | 259° |
| 2026-05-01 15:12 | 39.37312 | -112.12640 | 34045 ft | 443 kts | 259° |
| 2026-05-01 15:12 | 39.35152 | -112.24238 | 34041 ft | 442 kts | 259° |
| 2026-05-01 15:14 | 39.31535 | -112.43489 | 34037 ft | 442 kts | 259° |
| 2026-05-01 15:14 | 39.29391 | -112.55044 | 34037 ft | 440 kts | 260° |
| 2026-05-01 15:15 | 39.26619 | -112.70370 | 34037 ft | 440 kts | 260° |
| 2026-05-01 15:16 | 39.23824 | -112.85717 | 34034 ft | 440 kts | 261° |
| 2026-05-01 15:18 | 39.20308 | -113.04849 | 34037 ft | 440 kts | 261° |
| 2026-05-01 15:19 | 39.17462 | -113.20191 | 34040 ft | 440 kts | 261° |
| 2026-05-01 15:19 | 39.15316 | -113.31683 | 34051 ft | 440 kts | 261° |
| 2026-05-01 15:20 | 39.13167 | -113.43129 | 34042 ft | 441 kts | 261° |
| 2026-05-01 15:21 | 39.11717 | -113.50807 | 34064 ft | 441 kts | 261° |
| 2026-05-01 15:21 | 39.10244 | -113.58476 | 34062 ft | 441 kts | 261° |
| 2026-05-01 15:22 | 39.08031 | -113.69923 | 34062 ft | 441 kts | 261° |
| 2026-05-01 15:22 | 39.06560 | -113.77585 | 34060 ft | 441 kts | 262° |
| 2026-05-01 15:23 | 39.05089 | -113.85244 | 34067 ft | 441 kts | 262° |
| 2026-05-01 15:23 | 39.03614 | -113.92900 | 34058 ft | 441 kts | 261° |
| 2026-05-01 15:24 | 39.02134 | -114.00550 | 34063 ft | 441 kts | 261° |
| 2026-05-01 15:24 | 39.00657 | -114.08151 | 34049 ft | 441 kts | 262° |
| 2026-05-01 15:25 | 38.99168 | -114.15782 | 34054 ft | 440 kts | 262° |
| 2026-05-01 15:25 | 38.97675 | -114.23409 | 34056 ft | 440 kts | 262° |
| 2026-05-01 15:26 | 38.96179 | -114.31029 | 34059 ft | 440 kts | 262° |
| 2026-05-01 15:26 | 38.94684 | -114.38608 | 34056 ft | 440 kts | 262° |
| 2026-05-01 15:27 | 38.93179 | -114.46204 | 34057 ft | 438 kts | 262° |
| 2026-05-01 15:28 | 38.90915 | -114.57582 | 34057 ft | 438 kts | 262° |
| 2026-05-01 15:28 | 38.89381 | -114.65110 | 34057 ft | 439 kts | 262° |
| 2026-05-01 15:29 | 38.87073 | -114.76493 | 34051 ft | 439 kts | 262° |
| 2026-05-01 15:30 | 38.84009 | -114.91653 | 34051 ft | 439 kts | 262° |
| 2026-05-01 15:31 | 38.79394 | -115.14298 | 34041 ft | 439 kts | 262° |
| 2026-05-01 15:32 | 38.76291 | -115.29387 | 34041 ft | 440 kts | 262° |
| 2026-05-01 15:34 | 38.71586 | -115.52057 | 34032 ft | 439 kts | 262° |